sensor_id;sensor_type;location;lat;lon;timestamp;P1;durP1;ratioP1;P2;durP2;ratioP2
39032;SDS011;24794;51.982;5.878;2022-11-14T00:00:33;31.73;;;19.88;;
39032;SDS011;24794;51.982;5.878;2022-11-14T00:01:33;30.67;;;19.05;;
39032;SDS011;24794;51.982;5.878;2022-11-14T00:02:34;27.88;;;17.88;;
39032;SDS011;24794;51.982;5.878;2022-11-14T00:03:35;27.05;;;17.55;;
39032;SDS011;24794;51.982;5.878;2022-11-14T00:04:36;30.05;;;18.73;;
39032;SDS011;24794;51.982;5.878;2022-11-14T00:05:40;27.27;;;17.83;;
39032;SDS011;24794;51.982;5.878;2022-11-14T00:06:42;25.95;;;16.85;;
39032;SDS011;24794;51.982;5.878;2022-11-14T00:07:43;27.08;;;16.42;;
39032;SDS011;24794;51.982;5.878;2022-11-14T00:08:44;30.30;;;18.77;;
39032;SDS011;24794;51.982;5.878;2022-11-14T00:09:45;27.17;;;16.98;;
39032;SDS011;24794;51.982;5.878;2022-11-14T00:10:46;26.83;;;17.35;;
39032;SDS011;24794;51.982;5.878;2022-11-14T00:11:47;27.25;;;16.88;;
39032;SDS011;24794;51.982;5.878;2022-11-14T00:12:48;29.67;;;17.58;;
39032;SDS011;24794;51.982;5.878;2022-11-14T00:13:49;32.88;;;21.13;;
39032;SDS011;24794;51.982;5.878;2022-11-14T00:14:49;32.80;;;20.02;;
39032;SDS011;24794;51.982;5.878;2022-11-14T00:15:51;30.15;;;19.15;;
39032;SDS011;24794;51.982;5.878;2022-11-14T00:16:55;27.48;;;17.73;;
39032;SDS011;24794;51.982;5.878;2022-11-14T00:17:55;30.10;;;20.02;;
39032;SDS011;24794;51.982;5.878;2022-11-14T00:18:56;31.85;;;19.42;;
39032;SDS011;24794;51.982;5.878;2022-11-14T00:19:56;29.95;;;17.73;;
39032;SDS011;24794;51.982;5.878;2022-11-14T00:20:57;31.35;;;18.95;;
39032;SDS011;24794;51.982;5.878;2022-11-14T00:21:57;29.95;;;18.05;;
39032;SDS011;24794;51.982;5.878;2022-11-14T00:22:59;27.52;;;17.35;;
39032;SDS011;24794;51.982;5.878;2022-11-14T00:23:59;30.35;;;19.48;;
39032;SDS011;24794;51.982;5.878;2022-11-14T00:25:00;31.08;;;19.17;;
39032;SDS011;24794;51.982;5.878;2022-11-14T00:26:00;27.40;;;17.50;;
39032;SDS011;24794;51.982;5.878;2022-11-14T00:27:01;30.08;;;17.92;;
39032;SDS011;24794;51.982;5.878;2022-11-14T00:28:02;26.40;;;17.48;;
39032;SDS011;24794;51.982;5.878;2022-11-14T00:29:02;31.30;;;19.52;;
39032;SDS011;24794;51.982;5.878;2022-11-14T00:30:03;34.58;;;20.48;;
39032;SDS011;24794;51.982;5.878;2022-11-14T00:31:04;33.60;;;20.08;;
39032;SDS011;24794;51.982;5.878;2022-11-14T00:32:05;31.17;;;20.50;;
39032;SDS011;24794;51.982;5.878;2022-11-14T00:33:06;30.90;;;19.50;;
39032;SDS011;24794;51.982;5.878;2022-11-14T00:34:07;30.02;;;17.48;;
39032;SDS011;24794;51.982;5.878;2022-11-14T00:35:08;35.42;;;20.35;;
39032;SDS011;24794;51.982;5.878;2022-11-14T00:36:08;32.22;;;19.02;;
39032;SDS011;24794;51.982;5.878;2022-11-14T00:37:09;33.78;;;20.45;;
39032;SDS011;24794;51.982;5.878;2022-11-14T00:38:10;30.85;;;18.75;;
39032;SDS011;24794;51.982;5.878;2022-11-14T00:39:13;29.63;;;18.67;;
39032;SDS011;24794;51.982;5.878;2022-11-14T00:40:14;31.05;;;19.17;;
39032;SDS011;24794;51.982;5.878;2022-11-14T00:41:15;29.65;;;18.65;;
39032;SDS011;24794;51.982;5.878;2022-11-14T00:42:15;31.27;;;19.38;;
39032;SDS011;24794;51.982;5.878;2022-11-14T00:43:16;29.77;;;19.17;;
39032;SDS011;24794;51.982;5.878;2022-11-14T00:44:16;31.42;;;19.15;;
39032;SDS011;24794;51.982;5.878;2022-11-14T00:45:17;31.20;;;18.75;;
39032;SDS011;24794;51.982;5.878;2022-11-14T00:46:19;30.58;;;18.98;;
39032;SDS011;24794;51.982;5.878;2022-11-14T00:47:19;31.40;;;20.15;;
39032;SDS011;24794;51.982;5.878;2022-11-14T00:48:20;32.78;;;20.80;;
39032;SDS011;24794;51.982;5.878;2022-11-14T00:49:20;35.95;;;21.33;;
39032;SDS011;24794;51.982;5.878;2022-11-14T00:50:21;32.70;;;20.63;;
39032;SDS011;24794;51.982;5.878;2022-11-14T00:51:21;35.08;;;21.30;;
39032;SDS011;24794;51.982;5.878;2022-11-14T00:52:22;35.95;;;21.75;;
39032;SDS011;24794;51.982;5.878;2022-11-14T00:53:23;33.55;;;21.30;;
39032;SDS011;24794;51.982;5.878;2022-11-14T00:54:23;33.20;;;20.15;;
39032;SDS011;24794;51.982;5.878;2022-11-14T00:55:25;32.28;;;19.17;;
39032;SDS011;24794;51.982;5.878;2022-11-14T00:56:26;35.20;;;20.58;;
39032;SDS011;24794;51.982;5.878;2022-11-14T00:57:26;31.58;;;19.73;;
39032;SDS011;24794;51.982;5.878;2022-11-14T00:58:27;33.83;;;19.63;;
39032;SDS011;24794;51.982;5.878;2022-11-14T00:59:27;35.25;;;21.88;;
39032;SDS011;24794;51.982;5.878;2022-11-14T01:00:28;37.80;;;21.42;;
39032;SDS011;24794;51.982;5.878;2022-11-14T01:01:29;33.58;;;19.77;;
39032;SDS011;24794;51.982;5.878;2022-11-14T01:02:29;34.13;;;19.95;;
39032;SDS011;24794;51.982;5.878;2022-11-14T01:03:30;35.28;;;21.23;;
39032;SDS011;24794;51.982;5.878;2022-11-14T01:04:31;33.45;;;20.88;;
39032;SDS011;24794;51.982;5.878;2022-11-14T01:05:31;36.38;;;23.27;;
39032;SDS011;24794;51.982;5.878;2022-11-14T01:06:32;37.17;;;22.50;;
39032;SDS011;24794;51.982;5.878;2022-11-14T01:07:33;33.85;;;20.42;;
39032;SDS011;24794;51.982;5.878;2022-11-14T01:08:33;34.33;;;20.73;;
39032;SDS011;24794;51.982;5.878;2022-11-14T01:09:34;33.65;;;20.20;;
39032;SDS011;24794;51.982;5.878;2022-11-14T01:10:37;40.03;;;23.00;;
39032;SDS011;24794;51.982;5.878;2022-11-14T01:11:39;33.72;;;21.13;;
39032;SDS011;24794;51.982;5.878;2022-11-14T01:12:41;34.55;;;21.45;;
39032;SDS011;24794;51.982;5.878;2022-11-14T01:13:41;35.53;;;21.45;;
39032;SDS011;24794;51.982;5.878;2022-11-14T01:14:42;34.58;;;20.80;;
39032;SDS011;24794;51.982;5.878;2022-11-14T01:15:44;36.85;;;22.73;;
39032;SDS011;24794;51.982;5.878;2022-11-14T01:16:46;37.35;;;21.85;;
39032;SDS011;24794;51.982;5.878;2022-11-14T01:17:47;39.97;;;22.52;;
39032;SDS011;24794;51.982;5.878;2022-11-14T01:18:47;35.53;;;21.35;;
39032;SDS011;24794;51.982;5.878;2022-11-14T01:19:48;37.58;;;22.05;;
39032;SDS011;24794;51.982;5.878;2022-11-14T01:20:49;34.55;;;21.60;;
39032;SDS011;24794;51.982;5.878;2022-11-14T01:21:49;34.67;;;20.48;;
39032;SDS011;24794;51.982;5.878;2022-11-14T01:22:50;38.25;;;23.23;;
39032;SDS011;24794;51.982;5.878;2022-11-14T01:23:50;32.92;;;20.42;;
39032;SDS011;24794;51.982;5.878;2022-11-14T01:24:51;35.22;;;21.67;;
39032;SDS011;24794;51.982;5.878;2022-11-14T01:25:52;35.42;;;20.50;;
39032;SDS011;24794;51.982;5.878;2022-11-14T01:26:55;35.03;;;20.63;;
39032;SDS011;24794;51.982;5.878;2022-11-14T01:27:56;39.78;;;24.20;;
39032;SDS011;24794;51.982;5.878;2022-11-14T01:28:56;36.70;;;22.75;;
39032;SDS011;24794;51.982;5.878;2022-11-14T01:29:57;39.85;;;23.67;;
39032;SDS011;24794;51.982;5.878;2022-11-14T01:32:18;38.30;;;22.45;;
39032;SDS011;24794;51.982;5.878;2022-11-14T01:33:18;44.00;;;24.83;;
39032;SDS011;24794;51.982;5.878;2022-11-14T01:34:19;37.35;;;23.17;;
39032;SDS011;24794;51.982;5.878;2022-11-14T01:35:19;39.75;;;23.27;;
39032;SDS011;24794;51.982;5.878;2022-11-14T01:36:20;37.08;;;22.15;;
39032;SDS011;24794;51.982;5.878;2022-11-14T01:37:21;37.83;;;22.52;;
39032;SDS011;24794;51.982;5.878;2022-11-14T01:38:22;40.92;;;25.10;;
39032;SDS011;24794;51.982;5.878;2022-11-14T01:39:22;38.90;;;22.48;;
39032;SDS011;24794;51.982;5.878;2022-11-14T01:40:25;38.45;;;22.48;;
39032;SDS011;24794;51.982;5.878;2022-11-14T01:41:26;35.45;;;20.65;;
39032;SDS011;24794;51.982;5.878;2022-11-14T01:42:26;37.70;;;22.38;;
39032;SDS011;24794;51.982;5.878;2022-11-14T01:43:34;39.42;;;22.15;;
39032;SDS011;24794;51.982;5.878;2022-11-14T01:44:48;38.70;;;22.90;;
39032;SDS011;24794;51.982;5.878;2022-11-14T01:46:59;43.65;;;24.00;;
39032;SDS011;24794;51.982;5.878;2022-11-14T01:48:00;42.10;;;23.67;;
39032;SDS011;24794;51.982;5.878;2022-11-14T01:49:02;40.53;;;23.48;;
39032;SDS011;24794;51.982;5.878;2022-11-14T01:50:10;39.92;;;22.00;;
39032;SDS011;24794;51.982;5.878;2022-11-14T01:51:21;40.65;;;24.10;;
39032;SDS011;24794;51.982;5.878;2022-11-14T01:52:30;41.08;;;23.20;;
39032;SDS011;24794;51.982;5.878;2022-11-14T01:53:34;37.92;;;21.60;;
39032;SDS011;24794;51.982;5.878;2022-11-14T01:54:36;38.95;;;23.55;;
39032;SDS011;24794;51.982;5.878;2022-11-14T01:55:40;34.72;;;21.05;;
39032;SDS011;24794;51.982;5.878;2022-11-14T01:56:42;40.08;;;22.70;;
39032;SDS011;24794;51.982;5.878;2022-11-14T01:57:47;36.88;;;21.13;;
39032;SDS011;24794;51.982;5.878;2022-11-14T01:58:51;40.70;;;23.13;;
39032;SDS011;24794;51.982;5.878;2022-11-14T02:00:00;39.85;;;22.50;;
39032;SDS011;24794;51.982;5.878;2022-11-14T02:01:05;35.92;;;21.63;;
39032;SDS011;24794;51.982;5.878;2022-11-14T02:02:14;37.75;;;22.08;;
39032;SDS011;24794;51.982;5.878;2022-11-14T02:03:16;39.38;;;23.00;;
39032;SDS011;24794;51.982;5.878;2022-11-14T02:04:26;41.03;;;23.85;;
39032;SDS011;24794;51.982;5.878;2022-11-14T02:05:29;42.55;;;24.33;;
39032;SDS011;24794;51.982;5.878;2022-11-14T02:06:31;36.25;;;21.17;;
39032;SDS011;24794;51.982;5.878;2022-11-14T02:07:33;44.20;;;24.63;;
39032;SDS011;24794;51.982;5.878;2022-11-14T02:08:37;39.15;;;22.60;;
39032;SDS011;24794;51.982;5.878;2022-11-14T02:09:43;38.22;;;21.58;;
39032;SDS011;24794;51.982;5.878;2022-11-14T02:10:44;41.95;;;23.10;;
39032;SDS011;24794;51.982;5.878;2022-11-14T02:11:45;40.80;;;24.35;;
39032;SDS011;24794;51.982;5.878;2022-11-14T02:12:46;39.45;;;22.30;;
39032;SDS011;24794;51.982;5.878;2022-11-14T02:13:48;42.85;;;25.02;;
39032;SDS011;24794;51.982;5.878;2022-11-14T02:14:50;40.33;;;22.85;;
39032;SDS011;24794;51.982;5.878;2022-11-14T02:15:53;41.40;;;22.48;;
39032;SDS011;24794;51.982;5.878;2022-11-14T02:16:53;41.25;;;24.30;;
39032;SDS011;24794;51.982;5.878;2022-11-14T02:17:54;39.47;;;22.88;;
39032;SDS011;24794;51.982;5.878;2022-11-14T02:18:55;38.80;;;22.58;;
39032;SDS011;24794;51.982;5.878;2022-11-14T02:21:22;42.53;;;23.85;;
39032;SDS011;24794;51.982;5.878;2022-11-14T02:22:22;42.13;;;23.45;;
39032;SDS011;24794;51.982;5.878;2022-11-14T02:23:24;42.75;;;24.48;;
39032;SDS011;24794;51.982;5.878;2022-11-14T02:24:25;41.25;;;22.73;;
39032;SDS011;24794;51.982;5.878;2022-11-14T02:25:26;41.00;;;23.70;;
39032;SDS011;24794;51.982;5.878;2022-11-14T02:26:27;42.47;;;23.80;;
39032;SDS011;24794;51.982;5.878;2022-11-14T02:27:28;38.38;;;22.02;;
39032;SDS011;24794;51.982;5.878;2022-11-14T02:28:31;37.25;;;20.88;;
39032;SDS011;24794;51.982;5.878;2022-11-14T02:29:32;41.05;;;22.90;;
39032;SDS011;24794;51.982;5.878;2022-11-14T02:30:33;41.00;;;22.95;;
39032;SDS011;24794;51.982;5.878;2022-11-14T02:31:34;45.35;;;24.52;;
39032;SDS011;24794;51.982;5.878;2022-11-14T02:32:34;39.55;;;22.52;;
39032;SDS011;24794;51.982;5.878;2022-11-14T02:33:35;37.97;;;21.38;;
39032;SDS011;24794;51.982;5.878;2022-11-14T02:34:35;38.83;;;21.38;;
39032;SDS011;24794;51.982;5.878;2022-11-14T02:35:36;43.50;;;24.20;;
39032;SDS011;24794;51.982;5.878;2022-11-14T02:36:37;45.25;;;25.13;;
39032;SDS011;24794;51.982;5.878;2022-11-14T02:37:37;39.00;;;23.77;;
39032;SDS011;24794;51.982;5.878;2022-11-14T02:38:38;43.90;;;23.45;;
39032;SDS011;24794;51.982;5.878;2022-11-14T02:39:39;44.67;;;25.50;;
39032;SDS011;24794;51.982;5.878;2022-11-14T02:40:39;39.42;;;22.00;;
39032;SDS011;24794;51.982;5.878;2022-11-14T02:41:40;44.13;;;25.00;;
39032;SDS011;24794;51.982;5.878;2022-11-14T02:42:41;44.72;;;24.75;;
39032;SDS011;24794;51.982;5.878;2022-11-14T02:43:41;43.70;;;23.20;;
39032;SDS011;24794;51.982;5.878;2022-11-14T02:44:42;39.72;;;22.55;;
39032;SDS011;24794;51.982;5.878;2022-11-14T02:45:42;40.88;;;22.70;;
39032;SDS011;24794;51.982;5.878;2022-11-14T02:46:43;45.85;;;24.10;;
39032;SDS011;24794;51.982;5.878;2022-11-14T02:47:44;42.20;;;23.05;;
39032;SDS011;24794;51.982;5.878;2022-11-14T02:48:44;39.40;;;22.85;;
39032;SDS011;24794;51.982;5.878;2022-11-14T02:49:45;38.30;;;22.65;;
39032;SDS011;24794;51.982;5.878;2022-11-14T02:50:49;42.60;;;22.88;;
39032;SDS011;24794;51.982;5.878;2022-11-14T02:51:49;39.30;;;21.58;;
39032;SDS011;24794;51.982;5.878;2022-11-14T02:52:50;38.75;;;22.23;;
39032;SDS011;24794;51.982;5.878;2022-11-14T02:53:52;41.38;;;23.30;;
39032;SDS011;24794;51.982;5.878;2022-11-14T02:54:53;43.42;;;23.55;;
39032;SDS011;24794;51.982;5.878;2022-11-14T02:55:54;43.35;;;23.27;;
39032;SDS011;24794;51.982;5.878;2022-11-14T02:56:54;42.97;;;23.60;;
39032;SDS011;24794;51.982;5.878;2022-11-14T02:57:55;43.20;;;24.45;;
39032;SDS011;24794;51.982;5.878;2022-11-14T02:58:55;40.25;;;23.75;;
39032;SDS011;24794;51.982;5.878;2022-11-14T02:59:56;44.85;;;23.48;;
39032;SDS011;24794;51.982;5.878;2022-11-14T03:00:56;42.22;;;23.23;;
39032;SDS011;24794;51.982;5.878;2022-11-14T03:01:57;41.88;;;23.58;;
39032;SDS011;24794;51.982;5.878;2022-11-14T03:02:57;39.35;;;22.35;;
39032;SDS011;24794;51.982;5.878;2022-11-14T03:03:58;35.15;;;20.10;;
39032;SDS011;24794;51.982;5.878;2022-11-14T03:04:59;41.70;;;23.15;;
39032;SDS011;24794;51.982;5.878;2022-11-14T03:06:00;43.03;;;24.00;;
39032;SDS011;24794;51.982;5.878;2022-11-14T03:07:01;45.30;;;24.42;;
39032;SDS011;24794;51.982;5.878;2022-11-14T03:08:02;45.10;;;24.88;;
39032;SDS011;24794;51.982;5.878;2022-11-14T03:09:02;40.65;;;22.90;;
39032;SDS011;24794;51.982;5.878;2022-11-14T03:10:03;44.20;;;24.15;;
39032;SDS011;24794;51.982;5.878;2022-11-14T03:11:05;39.25;;;21.90;;
39032;SDS011;24794;51.982;5.878;2022-11-14T03:12:07;43.38;;;23.05;;
39032;SDS011;24794;51.982;5.878;2022-11-14T03:13:08;42.92;;;23.10;;
39032;SDS011;24794;51.982;5.878;2022-11-14T03:14:08;42.13;;;23.48;;
39032;SDS011;24794;51.982;5.878;2022-11-14T03:15:09;40.67;;;22.38;;
39032;SDS011;24794;51.982;5.878;2022-11-14T03:16:10;42.67;;;22.85;;
39032;SDS011;24794;51.982;5.878;2022-11-14T03:17:12;44.08;;;23.30;;
39032;SDS011;24794;51.982;5.878;2022-11-14T03:18:12;40.63;;;22.05;;
39032;SDS011;24794;51.982;5.878;2022-11-14T03:19:13;43.88;;;23.08;;
39032;SDS011;24794;51.982;5.878;2022-11-14T03:20:14;41.35;;;23.33;;
39032;SDS011;24794;51.982;5.878;2022-11-14T03:21:15;40.35;;;23.27;;
39032;SDS011;24794;51.982;5.878;2022-11-14T03:22:20;38.95;;;22.52;;
39032;SDS011;24794;51.982;5.878;2022-11-14T03:23:20;39.67;;;22.67;;
39032;SDS011;24794;51.982;5.878;2022-11-14T03:24:21;38.53;;;21.58;;
39032;SDS011;24794;51.982;5.878;2022-11-14T03:25:21;40.80;;;21.92;;
39032;SDS011;24794;51.982;5.878;2022-11-14T03:26:22;41.90;;;23.05;;
39032;SDS011;24794;51.982;5.878;2022-11-14T03:27:22;40.47;;;22.50;;
39032;SDS011;24794;51.982;5.878;2022-11-14T03:28:23;42.65;;;22.58;;
39032;SDS011;24794;51.982;5.878;2022-11-14T03:29:24;37.95;;;21.98;;
39032;SDS011;24794;51.982;5.878;2022-11-14T03:30:24;42.63;;;23.38;;
39032;SDS011;24794;51.982;5.878;2022-11-14T03:31:25;40.45;;;21.95;;
39032;SDS011;24794;51.982;5.878;2022-11-14T03:32:25;40.60;;;22.38;;
39032;SDS011;24794;51.982;5.878;2022-11-14T03:33:26;36.67;;;20.38;;
39032;SDS011;24794;51.982;5.878;2022-11-14T03:34:27;38.58;;;21.20;;
39032;SDS011;24794;51.982;5.878;2022-11-14T03:35:27;37.17;;;19.90;;
39032;SDS011;24794;51.982;5.878;2022-11-14T03:36:28;42.22;;;22.25;;
39032;SDS011;24794;51.982;5.878;2022-11-14T03:37:28;38.67;;;20.70;;
39032;SDS011;24794;51.982;5.878;2022-11-14T03:38:29;36.85;;;20.92;;
39032;SDS011;24794;51.982;5.878;2022-11-14T03:39:30;35.95;;;19.70;;
39032;SDS011;24794;51.982;5.878;2022-11-14T03:40:30;35.80;;;20.40;;
39032;SDS011;24794;51.982;5.878;2022-11-14T03:41:31;42.85;;;22.35;;
39032;SDS011;24794;51.982;5.878;2022-11-14T03:42:32;38.03;;;20.95;;
39032;SDS011;24794;51.982;5.878;2022-11-14T03:43:33;40.17;;;21.45;;
39032;SDS011;24794;51.982;5.878;2022-11-14T03:44:34;38.75;;;20.90;;
39032;SDS011;24794;51.982;5.878;2022-11-14T03:45:35;38.63;;;21.30;;
39032;SDS011;24794;51.982;5.878;2022-11-14T03:46:36;44.75;;;24.25;;
39032;SDS011;24794;51.982;5.878;2022-11-14T03:47:37;41.08;;;21.95;;
39032;SDS011;24794;51.982;5.878;2022-11-14T03:48:38;35.42;;;19.95;;
39032;SDS011;24794;51.982;5.878;2022-11-14T03:49:38;37.58;;;20.70;;
39032;SDS011;24794;51.982;5.878;2022-11-14T03:50:39;37.50;;;21.45;;
39032;SDS011;24794;51.982;5.878;2022-11-14T03:51:41;35.08;;;19.88;;
39032;SDS011;24794;51.982;5.878;2022-11-14T03:52:41;40.17;;;22.10;;
39032;SDS011;24794;51.982;5.878;2022-11-14T03:53:42;41.20;;;23.77;;
39032;SDS011;24794;51.982;5.878;2022-11-14T03:54:42;41.38;;;23.52;;
39032;SDS011;24794;51.982;5.878;2022-11-14T03:55:43;41.60;;;22.25;;
39032;SDS011;24794;51.982;5.878;2022-11-14T03:56:43;37.92;;;21.40;;
39032;SDS011;24794;51.982;5.878;2022-11-14T03:57:44;37.88;;;21.33;;
39032;SDS011;24794;51.982;5.878;2022-11-14T03:58:44;38.45;;;21.13;;
39032;SDS011;24794;51.982;5.878;2022-11-14T03:59:45;38.17;;;21.45;;
39032;SDS011;24794;51.982;5.878;2022-11-14T04:00:45;41.03;;;22.38;;
39032;SDS011;24794;51.982;5.878;2022-11-14T04:01:46;43.92;;;23.33;;
39032;SDS011;24794;51.982;5.878;2022-11-14T04:02:47;40.38;;;21.80;;
39032;SDS011;24794;51.982;5.878;2022-11-14T04:03:48;38.65;;;20.95;;
39032;SDS011;24794;51.982;5.878;2022-11-14T04:04:49;36.88;;;20.45;;
39032;SDS011;24794;51.982;5.878;2022-11-14T04:05:49;37.70;;;20.75;;
39032;SDS011;24794;51.982;5.878;2022-11-14T04:06:50;40.83;;;22.50;;
39032;SDS011;24794;51.982;5.878;2022-11-14T04:07:51;40.00;;;21.63;;
39032;SDS011;24794;51.982;5.878;2022-11-14T04:08:51;37.00;;;20.95;;
39032;SDS011;24794;51.982;5.878;2022-11-14T04:09:52;37.55;;;20.48;;
39032;SDS011;24794;51.982;5.878;2022-11-14T04:10:52;37.42;;;21.48;;
39032;SDS011;24794;51.982;5.878;2022-11-14T04:11:53;37.42;;;21.00;;
39032;SDS011;24794;51.982;5.878;2022-11-14T04:12:54;37.10;;;20.63;;
39032;SDS011;24794;51.982;5.878;2022-11-14T04:13:54;40.42;;;22.17;;
39032;SDS011;24794;51.982;5.878;2022-11-14T04:14:55;38.55;;;20.08;;
39032;SDS011;24794;51.982;5.878;2022-11-14T04:15:56;40.10;;;21.95;;
39032;SDS011;24794;51.982;5.878;2022-11-14T04:16:57;39.20;;;21.95;;
39032;SDS011;24794;51.982;5.878;2022-11-14T04:17:58;40.20;;;23.05;;
39032;SDS011;24794;51.982;5.878;2022-11-14T04:18:59;43.60;;;23.00;;
39032;SDS011;24794;51.982;5.878;2022-11-14T04:19:59;37.63;;;21.83;;
39032;SDS011;24794;51.982;5.878;2022-11-14T04:21:00;38.83;;;21.90;;
39032;SDS011;24794;51.982;5.878;2022-11-14T04:22:00;37.95;;;21.33;;
39032;SDS011;24794;51.982;5.878;2022-11-14T04:23:01;39.55;;;21.33;;
39032;SDS011;24794;51.982;5.878;2022-11-14T04:24:01;36.53;;;20.23;;
39032;SDS011;24794;51.982;5.878;2022-11-14T04:25:02;39.40;;;20.85;;
39032;SDS011;24794;51.982;5.878;2022-11-14T04:26:04;37.75;;;20.23;;
39032;SDS011;24794;51.982;5.878;2022-11-14T04:27:04;37.22;;;20.60;;
39032;SDS011;24794;51.982;5.878;2022-11-14T04:28:05;39.15;;;21.20;;
39032;SDS011;24794;51.982;5.878;2022-11-14T04:29:05;41.80;;;22.85;;
39032;SDS011;24794;51.982;5.878;2022-11-14T04:30:06;42.55;;;21.92;;
39032;SDS011;24794;51.982;5.878;2022-11-14T04:31:07;43.22;;;23.25;;
39032;SDS011;24794;51.982;5.878;2022-11-14T04:32:08;39.92;;;22.20;;
39032;SDS011;24794;51.982;5.878;2022-11-14T04:33:08;42.55;;;22.75;;
39032;SDS011;24794;51.982;5.878;2022-11-14T04:34:09;40.53;;;21.58;;
39032;SDS011;24794;51.982;5.878;2022-11-14T04:35:09;40.58;;;22.65;;
39032;SDS011;24794;51.982;5.878;2022-11-14T04:36:10;42.83;;;23.17;;
39032;SDS011;24794;51.982;5.878;2022-11-14T04:37:10;38.47;;;21.33;;
39032;SDS011;24794;51.982;5.878;2022-11-14T04:38:11;39.03;;;21.58;;
39032;SDS011;24794;51.982;5.878;2022-11-14T04:39:11;38.70;;;21.63;;
39032;SDS011;24794;51.982;5.878;2022-11-14T04:40:12;37.97;;;21.25;;
39032;SDS011;24794;51.982;5.878;2022-11-14T04:41:13;37.42;;;20.45;;
39032;SDS011;24794;51.982;5.878;2022-11-14T04:42:13;36.00;;;19.63;;
39032;SDS011;24794;51.982;5.878;2022-11-14T04:43:14;37.67;;;20.25;;
39032;SDS011;24794;51.982;5.878;2022-11-14T04:44:14;39.15;;;21.10;;
39032;SDS011;24794;51.982;5.878;2022-11-14T04:45:15;38.05;;;21.00;;
39032;SDS011;24794;51.982;5.878;2022-11-14T04:46:15;43.78;;;22.52;;
39032;SDS011;24794;51.982;5.878;2022-11-14T04:47:16;41.78;;;22.10;;
39032;SDS011;24794;51.982;5.878;2022-11-14T04:48:17;38.05;;;21.42;;
39032;SDS011;24794;51.982;5.878;2022-11-14T04:49:17;43.05;;;23.20;;
39032;SDS011;24794;51.982;5.878;2022-11-14T04:50:18;40.17;;;21.73;;
39032;SDS011;24794;51.982;5.878;2022-11-14T04:51:18;37.45;;;20.73;;
39032;SDS011;24794;51.982;5.878;2022-11-14T04:52:19;37.08;;;19.48;;
39032;SDS011;24794;51.982;5.878;2022-11-14T04:53:20;36.15;;;20.65;;
39032;SDS011;24794;51.982;5.878;2022-11-14T04:54:20;36.83;;;19.40;;
39032;SDS011;24794;51.982;5.878;2022-11-14T04:55:21;39.78;;;20.13;;
39032;SDS011;24794;51.982;5.878;2022-11-14T04:56:22;40.25;;;21.58;;
39032;SDS011;24794;51.982;5.878;2022-11-14T04:57:24;35.88;;;20.35;;
39032;SDS011;24794;51.982;5.878;2022-11-14T04:58:25;37.00;;;19.88;;
39032;SDS011;24794;51.982;5.878;2022-11-14T04:59:26;41.95;;;21.83;;
39032;SDS011;24794;51.982;5.878;2022-11-14T05:00:26;32.63;;;18.45;;
39032;SDS011;24794;51.982;5.878;2022-11-14T05:01:27;37.22;;;20.63;;
39032;SDS011;24794;51.982;5.878;2022-11-14T05:02:29;38.90;;;19.02;;
39032;SDS011;24794;51.982;5.878;2022-11-14T05:03:31;38.30;;;20.85;;
39032;SDS011;24794;51.982;5.878;2022-11-14T05:04:31;39.92;;;20.48;;
39032;SDS011;24794;51.982;5.878;2022-11-14T05:05:32;37.35;;;19.90;;
39032;SDS011;24794;51.982;5.878;2022-11-14T05:06:33;36.50;;;20.00;;
39032;SDS011;24794;51.982;5.878;2022-11-14T05:07:33;39.95;;;22.95;;
39032;SDS011;24794;51.982;5.878;2022-11-14T05:08:34;36.85;;;19.95;;
39032;SDS011;24794;51.982;5.878;2022-11-14T05:09:34;34.53;;;18.98;;
39032;SDS011;24794;51.982;5.878;2022-11-14T05:10:35;40.45;;;21.05;;
39032;SDS011;24794;51.982;5.878;2022-11-14T05:11:36;40.03;;;21.40;;
39032;SDS011;24794;51.982;5.878;2022-11-14T05:12:36;38.33;;;21.05;;
39032;SDS011;24794;51.982;5.878;2022-11-14T05:13:37;35.03;;;19.20;;
39032;SDS011;24794;51.982;5.878;2022-11-14T05:14:38;40.05;;;21.10;;
39032;SDS011;24794;51.982;5.878;2022-11-14T05:15:38;33.28;;;18.75;;
39032;SDS011;24794;51.982;5.878;2022-11-14T05:16:39;35.28;;;18.70;;
39032;SDS011;24794;51.982;5.878;2022-11-14T05:17:39;37.00;;;20.70;;
39032;SDS011;24794;51.982;5.878;2022-11-14T05:18:40;36.50;;;19.48;;
39032;SDS011;24794;51.982;5.878;2022-11-14T05:19:40;36.45;;;19.42;;
39032;SDS011;24794;51.982;5.878;2022-11-14T05:20:41;38.08;;;20.52;;
39032;SDS011;24794;51.982;5.878;2022-11-14T05:21:42;36.95;;;20.75;;
39032;SDS011;24794;51.982;5.878;2022-11-14T05:22:42;36.20;;;19.60;;
39032;SDS011;24794;51.982;5.878;2022-11-14T05:23:43;36.83;;;19.65;;
39032;SDS011;24794;51.982;5.878;2022-11-14T05:24:43;37.35;;;19.92;;
39032;SDS011;24794;51.982;5.878;2022-11-14T05:25:44;35.70;;;19.55;;
39032;SDS011;24794;51.982;5.878;2022-11-14T05:26:45;37.63;;;20.63;;
39032;SDS011;24794;51.982;5.878;2022-11-14T05:27:45;34.92;;;19.75;;
39032;SDS011;24794;51.982;5.878;2022-11-14T05:28:46;41.08;;;22.02;;
39032;SDS011;24794;51.982;5.878;2022-11-14T05:29:47;37.28;;;20.40;;
39032;SDS011;24794;51.982;5.878;2022-11-14T05:30:47;34.60;;;18.27;;
39032;SDS011;24794;51.982;5.878;2022-11-14T05:31:48;40.03;;;21.38;;
39032;SDS011;24794;51.982;5.878;2022-11-14T05:32:50;35.90;;;19.42;;
39032;SDS011;24794;51.982;5.878;2022-11-14T05:33:51;36.20;;;19.13;;
39032;SDS011;24794;51.982;5.878;2022-11-14T05:34:52;36.45;;;20.42;;
39032;SDS011;24794;51.982;5.878;2022-11-14T05:35:52;38.40;;;20.63;;
39032;SDS011;24794;51.982;5.878;2022-11-14T05:36:53;33.92;;;19.10;;
39032;SDS011;24794;51.982;5.878;2022-11-14T05:37:53;36.35;;;19.60;;
39032;SDS011;24794;51.982;5.878;2022-11-14T05:38:54;38.28;;;20.55;;
39032;SDS011;24794;51.982;5.878;2022-11-14T05:39:54;36.13;;;19.95;;
39032;SDS011;24794;51.982;5.878;2022-11-14T05:40:55;33.63;;;18.98;;
39032;SDS011;24794;51.982;5.878;2022-11-14T05:41:56;35.95;;;19.63;;
39032;SDS011;24794;51.982;5.878;2022-11-14T05:42:56;34.35;;;19.23;;
39032;SDS011;24794;51.982;5.878;2022-11-14T05:43:57;40.22;;;21.65;;
39032;SDS011;24794;51.982;5.878;2022-11-14T05:44:57;36.28;;;18.98;;
39032;SDS011;24794;51.982;5.878;2022-11-14T05:46:02;32.22;;;18.13;;
39032;SDS011;24794;51.982;5.878;2022-11-14T05:47:04;38.30;;;18.98;;
39032;SDS011;24794;51.982;5.878;2022-11-14T05:48:05;36.35;;;19.63;;
39032;SDS011;24794;51.982;5.878;2022-11-14T05:49:05;36.30;;;20.23;;
39032;SDS011;24794;51.982;5.878;2022-11-14T05:50:06;36.45;;;19.42;;
39032;SDS011;24794;51.982;5.878;2022-11-14T05:51:09;37.55;;;20.90;;
39032;SDS011;24794;51.982;5.878;2022-11-14T05:52:11;37.08;;;21.00;;
39032;SDS011;24794;51.982;5.878;2022-11-14T05:53:11;36.78;;;19.25;;
39032;SDS011;24794;51.982;5.878;2022-11-14T05:54:12;39.35;;;21.10;;
39032;SDS011;24794;51.982;5.878;2022-11-14T05:55:12;36.33;;;19.23;;
39032;SDS011;24794;51.982;5.878;2022-11-14T05:56:13;34.15;;;19.23;;
39032;SDS011;24794;51.982;5.878;2022-11-14T05:57:13;32.47;;;18.63;;
39032;SDS011;24794;51.982;5.878;2022-11-14T05:58:14;37.30;;;19.45;;
39032;SDS011;24794;51.982;5.878;2022-11-14T05:59:15;32.35;;;18.60;;
39032;SDS011;24794;51.982;5.878;2022-11-14T06:00:15;34.88;;;19.58;;
39032;SDS011;24794;51.982;5.878;2022-11-14T06:01:17;36.83;;;19.75;;